createdAt,value
2024-05-09T00:00:00.057Z,95871.88
2024-05-09T00:02:31.953Z,95866.78
2024-05-09T00:05:01.382Z,95864.16
2024-05-09T00:07:30.655Z,95860.56
2024-05-09T00:09:59.840Z,95864.16
2024-05-09T00:12:29.177Z,95865.16
2024-05-09T00:14:58.396Z,95865.94
2024-05-09T00:17:27.720Z,95859.91
2024-05-09T00:19:59.730Z,95858.09
2024-05-09T00:22:28.918Z,95853.81
2024-05-09T00:24:58.120Z,95848.72
2024-05-09T00:27:27.406Z,95847.91
2024-05-09T00:29:57.048Z,95851.34
2024-05-09T00:32:26.475Z,95843.63
2024-05-09T00:34:56.123Z,95844.44
2024-05-09T00:37:27.909Z,95846.25
2024-05-09T00:39:57.131Z,95844.63
2024-05-09T00:42:26.314Z,95847.34
2024-05-09T00:44:55.459Z,95846.41
2024-05-09T00:47:24.917Z,95836.88
2024-05-09T00:49:54.295Z,95838.66
2024-05-09T00:52:25.057Z,95843.09
2024-05-09T00:54:57.032Z,95839.66
2024-05-09T00:57:26.790Z,95839.66
2024-05-09T00:59:56.365Z,95833.56
2024-05-09T01:02:25.740Z,95837.19
2024-05-09T01:04:55.600Z,95838.81
2024-05-09T01:07:25.061Z,95839.81
2024-05-09T01:09:56.927Z,95837.19
2024-05-09T01:12:27.376Z,95827.66
2024-05-09T01:14:56.677Z,95836.34
2024-05-09T01:17:26.040Z,95834.69
2024-05-09T01:19:55.411Z,95843.38
2024-05-09T01:22:26.141Z,95838.16
2024-05-09T01:24:57.952Z,95832.91
2024-05-09T01:27:27.195Z,95837.19
2024-05-09T01:29:56.349Z,95845.19
2024-05-09T01:32:25.820Z,95836.50
2024-05-09T01:34:55.118Z,95838.31
2024-05-09T01:37:24.325Z,95834.69
2024-05-09T01:39:53.583Z,95838.31
2024-05-09T01:42:25.454Z,95832.22
2024-05-09T01:44:54.701Z,95836.63
2024-05-09T01:47:24.055Z,95843.66
2024-05-09T01:49:53.399Z,95835.81
2024-05-09T01:52:22.589Z,95841.06
2024-05-09T01:54:51.794Z,95840.25
2024-05-09T01:57:21.128Z,95838.44
2024-05-09T01:59:52.995Z,95842.03
2024-05-09T02:02:22.325Z,95836.78
2024-05-09T02:04:51.713Z,95842.19
2024-05-09T02:07:20.992Z,95837.75
2024-05-09T02:09:50.277Z,95843.81
2024-05-09T02:12:19.607Z,95835.13
2024-05-09T02:14:49.806Z,95840.38
2024-05-09T02:17:21.770Z,95840.53
2024-05-09T02:19:51.106Z,95836.28
2024-05-09T02:22:20.372Z,95837.06
2024-05-09T02:24:49.621Z,95828.41
2024-05-09T02:27:18.840Z,95830.03
2024-05-09T02:29:48.159Z,95830.88
2024-05-09T02:32:17.474Z,95834.47
2024-05-09T02:34:49.388Z,95832.66
2024-05-09T02:37:18.635Z,95834.47
2024-05-09T02:39:45.226Z,95832.66
2024-05-09T02:42:14.388Z,95828.41
2024-05-09T02:44:41.052Z,95833.66
2024-05-09T02:47:10.341Z,95824.13
2024-05-09T02:49:37.163Z,95832.81
2024-05-09T02:52:09.374Z,95835.44
2024-05-09T02:54:35.990Z,95831.16
2024-05-09T02:57:05.342Z,95830.31
2024-05-09T02:59:32.045Z,95825.09
2024-05-09T03:02:01.478Z,95825.91
2024-05-09T03:04:28.189Z,95828.53
2024-05-09T03:06:57.446Z,95829.53
2024-05-09T03:09:26.683Z,95833.94
2024-05-09T03:11:56.010Z,95827.88
2024-05-09T03:14:22.797Z,95822.63
2024-05-09T03:16:52.036Z,95824.28
2024-05-09T03:19:18.835Z,95822.63
2024-05-09T03:21:48.141Z,95831.31
2024-05-09T03:24:14.792Z,95827.88
2024-05-09T03:26:46.992Z,95826.22
2024-05-09T03:29:13.627Z,95832.28
2024-05-09T03:31:42.883Z,95827.88
2024-05-09T03:34:11.227Z,95832.28
2024-05-09T03:36:43.577Z,95823.59
2024-05-09T03:39:13.166Z,95829.66
2024-05-09T03:41:42.416Z,95822.63
2024-05-09T03:44:14.344Z,95824.41
2024-05-09T03:46:41.141Z,95819.16
2024-05-09T03:49:10.636Z,95824.41
2024-05-09T03:51:37.451Z,95829.66
2024-05-09T03:54:06.711Z,95825.41
2024-05-09T03:56:33.380Z,95826.22
2024-05-09T03:59:02.674Z,95835.06
2024-05-09T04:01:32.105Z,95824.56
2024-05-09T04:04:01.432Z,95823.59
2024-05-09T04:06:28.079Z,95829.81
2024-05-09T04:08:57.249Z,95835.06
2024-05-09T04:11:23.972Z,95846.22
2024-05-09T04:13:53.262Z,95831.47
2024-05-09T04:16:19.866Z,95836.56
2024-05-09T04:18:51.762Z,95840.00
2024-05-09T04:21:18.441Z,95844.25
2024-05-09T04:23:47.733Z,95839.84
2024-05-09T04:26:14.440Z,95848.56
2024-05-09T04:28:43.692Z,95852.00
2024-05-09T04:31:10.414Z,95854.63
2024-05-09T04:33:39.700Z,95844.94
2024-05-09T04:36:09.306Z,95855.59
2024-05-09T04:38:38.613Z,95854.63
2024-05-09T04:41:05.291Z,95852.81
2024-05-09T04:43:35.280Z,95857.25
2024-05-09T04:46:01.884Z,95864.28
2024-05-09T04:48:31.394Z,95865.13
2024-05-09T04:51:00.784Z,95869.53
2024-05-09T04:53:30.043Z,95874.75
2024-05-09T04:55:59.580Z,95863.44
2024-05-09T04:58:26.217Z,95874.59
2024-05-09T05:00:55.447Z,95871.16
2024-05-09T05:03:22.472Z,95868.53
2024-05-09T05:05:52.028Z,95872.97
2024-05-09T05:08:19.513Z,95875.59
2024-05-09T05:10:51.776Z,95869.53
2024-05-09T05:13:23.730Z,95868.53
2024-05-09T05:15:56.964Z,95875.72
2024-05-09T05:18:25.372Z,95877.22
2024-05-09T05:20:54.863Z,95869.53
2024-05-09T05:23:22.413Z,95871.16
2024-05-09T05:25:55.209Z,95875.59
2024-05-09T05:28:22.358Z,95874.75
2024-05-09T05:30:52.027Z,95877.22
2024-05-09T05:33:19.463Z,95880.84
2024-05-09T05:35:49.067Z,95881.66
2024-05-09T05:38:15.865Z,95874.59
2024-05-09T05:40:45.215Z,95875.59
2024-05-09T05:43:18.483Z,95886.09
2024-05-09T05:45:47.780Z,95886.88
2024-05-09T05:48:16.255Z,95883.47
2024-05-09T05:50:46.330Z,95887.88
2024-05-09T05:53:13.189Z,95884.25
2024-05-09T05:55:43.039Z,95891.31
2024-05-09T05:58:09.757Z,95890.50
2024-05-09T06:00:43.213Z,95892.13
2024-05-09T06:03:11.557Z,95892.97
2024-05-09T06:05:43.342Z,95896.56
2024-05-09T06:08:10.473Z,95897.38
2024-05-09T06:10:41.106Z,95887.88
2024-05-09T06:13:10.418Z,95890.50
2024-05-09T06:15:43.450Z,95887.03
2024-05-09T06:18:11.971Z,95880.00
2024-05-09T06:20:43.598Z,95889.66
2024-05-09T06:23:11.050Z,95880.97
2024-05-09T06:25:40.694Z,95883.47
2024-05-09T06:28:07.362Z,95883.47
2024-05-09T06:30:40.103Z,95882.63
2024-05-09T06:33:13.461Z,95876.41
2024-05-09T06:35:45.167Z,95883.31
2024-05-09T06:38:12.351Z,95892.00
2024-05-09T06:40:43.914Z,95894.63
2024-05-09T06:43:11.521Z,95891.16
2024-05-09T06:45:40.911Z,95895.44
2024-05-09T06:48:11.397Z,95902.50
2024-05-09T06:50:41.278Z,95899.88
2024-05-09T06:53:08.511Z,95894.63
2024-05-09T06:55:38.586Z,95892.97
2024-05-09T06:58:05.871Z,95894.63
2024-05-09T07:00:39.276Z,95897.38
2024-05-09T07:03:12.455Z,95900.81
2024-05-09T07:05:43.370Z,95905.25
2024-05-09T07:08:10.257Z,95896.41
2024-05-09T07:10:39.597Z,95901.66
2024-05-09T07:13:07.965Z,95897.25
2024-05-09T07:15:37.193Z,95897.38
2024-05-09T07:18:10.775Z,95898.19
2024-05-09T07:20:41.092Z,95895.59
2024-05-09T07:23:08.684Z,95892.13
2024-05-09T07:25:37.921Z,95895.59
2024-05-09T07:28:04.923Z,95901.81
2024-05-09T07:30:35.088Z,95899.19
2024-05-09T07:33:02.919Z,95900.81
2024-05-09T07:35:35.324Z,95897.38
2024-05-09T07:38:02.052Z,95900.16
2024-05-09T07:40:35.991Z,95905.25
2024-05-09T07:43:03.823Z,95903.44
2024-05-09T07:53:36.591Z,95892.81
2024-05-09T07:55:58.570Z,95892.00
2024-05-09T07:58:27.769Z,95892.97
2024-05-09T08:00:57.403Z,95891.16
2024-05-09T08:03:24.366Z,95889.50
2024-05-09T08:05:56.360Z,95890.34
2024-05-09T08:08:23.034Z,95897.38
2024-05-09T08:10:52.798Z,95887.72
2024-05-09T08:13:19.460Z,95889.50
2024-05-09T08:15:48.818Z,95893.13
2024-05-09T08:18:15.792Z,95892.13
2024-05-09T08:20:45.283Z,95890.06
2024-05-09T08:23:14.457Z,95899.56
2024-05-09T08:25:43.676Z,95895.00
2024-05-09T08:28:10.533Z,95894.19
2024-05-09T08:30:40.038Z,95894.31
2024-05-09T08:33:07.649Z,95886.59
2024-05-09T08:35:37.250Z,95886.59
2024-05-09T08:38:04.765Z,95883.16
2024-05-09T08:40:38.200Z,95893.63
2024-05-09T08:43:07.071Z,95886.59
2024-05-09T08:45:38.427Z,95888.94
2024-05-09T08:48:08.151Z,95881.88
2024-05-09T08:50:39.524Z,95882.56
2024-05-09T08:53:07.107Z,95886.84
2024-05-09T08:55:41.815Z,95884.38
2024-05-09T08:58:10.423Z,95881.88
2024-05-09T09:00:41.296Z,95875.97
2024-05-09T09:03:09.442Z,95882.03
2024-05-09T09:05:40.973Z,95876.78
2024-05-09T09:08:08.801Z,95872.38
2024-05-09T09:10:42.273Z,95866.16
2024-05-09T09:13:11.041Z,95870.28
2024-05-09T09:15:49.325Z,95868.50
2024-05-09T09:18:16.843Z,95866.69
2024-05-09T09:20:46.522Z,95870.28
2024-05-09T09:23:13.240Z,95866.16
2024-05-09T09:25:45.186Z,95868.94
2024-05-09T09:28:12.676Z,95866.16
2024-05-09T09:30:42.483Z,95869.59
2024-05-09T09:33:10.051Z,95866.81
2024-05-09T09:35:41.583Z,95869.31
2024-05-09T09:38:08.484Z,95875.25
2024-05-09T09:40:42.893Z,95873.72
2024-05-09T09:43:18.838Z,95886.84
2024-05-09T09:45:49.316Z,95875.53
2024-05-09T09:48:16.641Z,95878.97
2024-05-09T09:50:46.123Z,95880.63
2024-05-09T09:53:13.059Z,95879.94
2024-05-09T09:55:42.818Z,95881.09
2024-05-09T09:58:13.259Z,95886.44
2024-05-09T10:00:46.334Z,95888.13
2024-05-09T10:03:13.226Z,95889.22
2024-05-09T10:05:45.275Z,95889.38
2024-05-09T10:08:14.978Z,95883.31
2024-05-09T10:10:48.299Z,95883.31
2024-05-09T10:13:15.204Z,95885.09
2024-05-09T10:15:50.683Z,95883.31
2024-05-09T10:18:17.685Z,95882.47
2024-05-09T10:20:49.332Z,95875.59
2024-05-09T10:23:23.644Z,95869.53
2024-05-09T10:26:03.034Z,95872.16
2024-05-09T10:28:30.862Z,95872.16
2024-05-09T10:31:09.681Z,95869.66
2024-05-09T10:33:37.487Z,95874.75
2024-05-09T10:36:07.060Z,95879.19
2024-05-09T10:38:33.890Z,95880.97
2024-05-09T10:41:03.563Z,95874.88
2024-05-09T10:43:31.176Z,95874.09
2024-05-09T10:46:00.489Z,95879.19
2024-05-09T10:48:29.948Z,95877.38
2024-05-09T10:50:59.771Z,95879.19
2024-05-09T10:53:26.410Z,95874.75
2024-05-09T10:55:59.188Z,95873.09
2024-05-09T10:58:26.243Z,95866.06
2024-05-09T11:00:56.269Z,95852.97
2024-05-09T11:03:23.517Z,95869.53
2024-05-09T11:05:56.139Z,95870.34
2024-05-09T11:08:23.659Z,95864.28
2024-05-09T11:10:54.810Z,95865.25
2024-05-09T11:13:27.923Z,95857.38
2024-05-09T11:15:57.241Z,95863.44
2024-05-09T11:18:25.386Z,95860.00
2024-05-09T11:20:58.696Z,95857.38
2024-05-09T11:23:26.561Z,95862.63
2024-05-09T11:25:56.158Z,95864.41
2024-05-09T11:28:23.250Z,95860.81
2024-05-09T11:30:52.951Z,95861.78
2024-05-09T11:33:19.775Z,95858.38
2024-05-09T11:35:49.419Z,95860.16
2024-05-09T11:38:18.717Z,95857.38
2024-05-09T11:40:47.963Z,95863.59
2024-05-09T11:43:14.646Z,95853.91
2024-05-09T11:45:43.881Z,95854.91
2024-05-09T11:48:10.632Z,95864.56
2024-05-09T11:50:39.927Z,95861.94
2024-05-09T11:53:06.598Z,95851.47
2024-05-09T11:55:38.701Z,95860.16
2024-05-09T11:58:05.381Z,95854.91
2024-05-09T12:00:37.411Z,95849.66
2024-05-09T12:03:05.594Z,95851.47
2024-05-09T12:05:35.727Z,95848.84
2024-05-09T12:08:02.706Z,95847.03
2024-05-09T12:10:34.754Z,95845.25
2024-05-09T12:13:06.958Z,95828.03
2024-05-09T12:15:38.826Z,95837.53
2024-05-09T12:18:06.425Z,95827.03
2024-05-09T12:20:38.862Z,95833.94
2024-05-09T12:23:08.010Z,95832.28
2024-05-09T12:25:38.938Z,95833.09
2024-05-09T12:28:08.926Z,95827.03
2024-05-09T12:30:40.714Z,95826.22
2024-05-09T12:33:09.027Z,95824.41
2024-05-09T12:35:38.740Z,95823.44
2024-05-09T12:38:05.351Z,95822.63
2024-05-09T12:40:37.650Z,95821.94
2024-05-09T12:43:10.148Z,95818.38
2024-05-09T12:45:40.719Z,95818.38
2024-05-09T12:48:12.330Z,95810.50
2024-05-09T12:50:40.063Z,95818.38
2024-05-09T12:53:09.331Z,95808.84
2024-05-09T12:55:44.524Z,95808.00
2024-05-09T12:58:24.967Z,95811.47
2024-05-09T13:00:51.945Z,95806.22
2024-05-09T13:03:21.806Z,95799.19
2024-05-09T13:05:49.131Z,95785.94
2024-05-09T13:08:18.458Z,95790.03
2024-05-09T13:10:45.220Z,95788.94
2024-05-09T13:13:14.913Z,95784.38
2024-05-09T13:15:44.427Z,95786.00
2024-05-09T13:18:13.708Z,95782.25
2024-05-09T13:20:40.375Z,95776.06
2024-05-09T13:23:09.689Z,95771.63
2024-05-09T13:25:36.853Z,95774.94
2024-05-09T13:28:07.028Z,95765.41
2024-05-09T13:30:39.395Z,95767.06
2024-05-09T13:33:14.504Z,95767.75
2024-05-09T13:35:45.562Z,95763.47
2024-05-09T13:38:19.264Z,95765.41
2024-05-09T13:40:46.422Z,95760.00
2024-05-09T13:43:15.881Z,95770.66
2024-05-09T13:45:42.795Z,95765.41
2024-05-09T13:48:14.802Z,95764.72
2024-05-09T13:50:41.875Z,95763.22
2024-05-09T13:53:11.736Z,95758.31
2024-05-09T13:55:39.135Z,95753.19
2024-05-09T13:58:09.508Z,95754.03
2024-05-09T14:00:44.382Z,95747.16
2024-05-09T14:03:21.063Z,95741.75
2024-05-09T14:05:49.409Z,95746.66
2024-05-09T14:08:20.000Z,95743.09
2024-05-09T14:10:47.487Z,95743.91
2024-05-09T14:13:17.500Z,95743.75
2024-05-09T14:15:44.375Z,95750.66
2024-05-09T14:18:14.448Z,95738.69
2024-05-09T14:20:44.078Z,95734.41
2024-05-09T14:23:13.433Z,95739.78
2024-05-09T14:25:42.521Z,95736.34
2024-05-09T14:28:13.495Z,95728.47
2024-05-09T14:30:40.448Z,95732.59
2024-05-09T14:33:10.022Z,95727.19
2024-05-09T14:35:37.660Z,95727.06
2024-05-09T14:38:10.643Z,95731.31
2024-05-09T14:40:42.176Z,95728.69
2024-05-09T14:43:14.117Z,95720.69
2024-05-09T14:45:41.618Z,95725.13
2024-05-09T14:48:11.282Z,95726.63
2024-05-09T14:50:39.810Z,95715.31
2024-05-09T14:53:14.006Z,95715.31
2024-05-09T14:55:42.782Z,95719.88
2024-05-09T14:58:13.677Z,95724.44
2024-05-09T15:00:46.007Z,95715.09
2024-05-09T15:03:19.528Z,95723.06
2024-05-09T15:05:47.247Z,95718.97
2024-05-09T15:08:19.485Z,95717.31
2024-05-09T15:10:49.969Z,95712.06
2024-05-09T15:13:17.493Z,95704.38
2024-05-09T15:15:47.038Z,95714.03
2024-05-09T15:18:13.942Z,95704.50
2024-05-09T15:20:43.489Z,95697.63
2024-05-09T15:23:10.271Z,95688.78
2024-05-09T15:25:44.195Z,95690.59
2024-05-09T15:28:11.098Z,95689.59
2024-05-09T15:30:42.788Z,95697.63
2024-05-09T15:33:11.848Z,95689.78
2024-05-09T15:35:41.973Z,95690.59
2024-05-09T15:38:08.804Z,95687.97
2024-05-09T15:40:40.470Z,95684.53
2024-05-09T15:43:11.593Z,95681.06
2024-05-09T15:45:41.686Z,95681.06
2024-05-09T15:48:09.340Z,95686.31
2024-05-09T15:50:41.402Z,95681.06
2024-05-09T15:53:10.100Z,95687.16
2024-05-09T15:55:39.797Z,95685.47
2024-05-09T15:58:07.260Z,95683.84
2024-05-09T16:00:42.427Z,95688.09
2024-05-09T16:03:11.789Z,95676.81
2024-05-09T16:05:42.259Z,95682.06
2024-05-09T16:08:09.331Z,95680.41
2024-05-09T16:10:42.439Z,95677.78
2024-05-09T16:13:11.172Z,95682.06
2024-05-09T16:15:43.194Z,95674.34
2024-05-09T16:18:09.992Z,95676.00
2024-05-09T16:20:41.644Z,95675.16
2024-05-09T16:23:13.043Z,95681.22
2024-05-09T16:25:40.202Z,95673.38
2024-05-09T16:28:10.860Z,95674.19
2024-05-09T16:30:40.708Z,95672.53
2024-05-09T16:33:10.825Z,95675.84
2024-05-09T16:35:37.895Z,95665.50
2024-05-09T16:38:07.833Z,95668.97
2024-05-09T16:40:38.999Z,95668.97
2024-05-09T16:43:11.086Z,95672.38
2024-05-09T16:45:41.351Z,95672.38
2024-05-09T16:48:11.333Z,95669.75
2024-05-09T16:50:38.398Z,95667.13
2024-05-09T16:53:08.639Z,95672.25
2024-05-09T16:55:35.767Z,95669.75
2024-05-09T16:58:06.523Z,95666.19
2024-05-09T17:00:40.494Z,95665.34
2024-05-09T17:03:16.264Z,95653.22
2024-05-09T17:05:43.785Z,95660.09
2024-05-09T17:08:13.492Z,95665.34
2024-05-09T17:10:40.181Z,95660.09
2024-05-09T17:13:10.123Z,95654.03
2024-05-09T17:15:39.505Z,95655.69
2024-05-09T17:18:09.789Z,95661.91
2024-05-09T17:20:41.618Z,95657.66
2024-05-09T17:23:13.136Z,95667.13
2024-05-09T17:25:43.451Z,95662.72
2024-05-09T17:28:10.461Z,95657.47
2024-05-09T17:30:41.934Z,95660.09
2024-05-09T17:33:10.529Z,95665.34
2024-05-09T17:35:45.782Z,95660.94
2024-05-09T17:38:12.651Z,95658.44
2024-05-09T17:40:41.914Z,95664.41
2024-05-09T17:43:10.719Z,95669.66
2024-05-09T17:45:42.622Z,95665.16
2024-05-09T17:48:10.726Z,95670.06
2024-05-09T17:50:44.004Z,95671.34
2024-05-09T17:53:11.325Z,95667.34
2024-05-09T17:55:41.259Z,95667.50
2024-05-09T17:58:08.659Z,95664.22
2024-05-09T18:00:41.116Z,95668.81
2024-05-09T18:03:11.826Z,95667.97
2024-05-09T18:05:45.585Z,95673.38
2024-05-09T18:08:13.252Z,95674.19
2024-05-09T18:10:43.326Z,95667.28
2024-05-09T18:13:10.937Z,95673.38
2024-05-09T18:15:41.407Z,95673.38
2024-05-09T18:18:09.306Z,95675.16
2024-05-09T18:20:43.938Z,95673.50
2024-05-09T18:23:17.747Z,95679.28
2024-05-09T18:25:48.539Z,95675.00
2024-05-09T18:28:15.702Z,95680.13
2024-05-09T18:30:45.515Z,95676.66
2024-05-09T18:33:12.701Z,95676.66
2024-05-09T18:35:43.449Z,95679.13
2024-05-09T18:38:10.173Z,95682.56
2024-05-09T18:40:43.946Z,95682.56
2024-05-09T18:43:13.005Z,95679.94
2024-05-09T18:45:42.456Z,95686.84
2024-05-09T18:48:09.865Z,95686.84
2024-05-09T18:50:41.219Z,95684.25
2024-05-09T18:53:08.936Z,95685.19
2024-05-09T18:55:38.415Z,95690.28
2024-05-09T18:58:07.819Z,95686.03
2024-05-09T19:00:39.940Z,95686.84
2024-05-09T19:03:11.715Z,95694.72
2024-05-09T19:05:44.221Z,95698.97
2024-05-09T19:08:12.415Z,95692.91
2024-05-09T19:10:42.023Z,95706.00
2024-05-09T19:13:13.412Z,95708.50
2024-05-09T19:15:44.365Z,95708.63
2024-05-09T19:18:12.068Z,95717.31
2024-05-09T19:20:41.726Z,95714.69
2024-05-09T19:23:08.443Z,95722.56
2024-05-09T19:25:37.863Z,95724.22
2024-05-09T19:28:05.571Z,95724.34
2024-05-09T19:30:41.283Z,95725.19
2024-05-09T19:33:10.549Z,95723.41
2024-05-09T19:35:40.784Z,95722.56
2024-05-09T19:38:07.457Z,95723.41
2024-05-09T19:40:36.918Z,95723.41
2024-05-09T19:43:04.981Z,95729.47
2024-05-09T19:45:37.799Z,95718.97
2024-05-09T19:48:05.433Z,95728.47
2024-05-09T19:50:42.051Z,95725.03
2024-05-09T19:53:11.559Z,95731.09
2024-05-09T19:55:41.059Z,95729.47
2024-05-09T19:58:08.330Z,95730.28
2024-05-09T20:00:42.845Z,95726.00
2024-05-09T20:03:14.082Z,95731.09
2024-05-09T20:05:41.912Z,95733.72
2024-05-09T20:08:11.327Z,95732.59
2024-05-09T20:10:38.954Z,95737.69
2024-05-09T20:13:08.935Z,95739.50
2024-05-09T20:15:38.678Z,95733.44
2024-05-09T20:18:08.395Z,95736.06
2024-05-09T20:20:39.675Z,95741.44
2024-05-09T20:23:11.830Z,95737.84
2024-05-09T20:25:38.455Z,95738.69
2024-05-09T20:28:08.228Z,95732.75
2024-05-09T20:30:35.892Z,95737.19
2024-05-09T20:33:09.618Z,95738.97
2024-05-09T20:35:36.866Z,95737.34
2024-05-09T20:38:06.251Z,95738.28
2024-05-09T20:40:36.948Z,95738.97
2024-05-09T20:43:08.612Z,95733.56
2024-05-09T20:45:35.805Z,95735.22
2024-05-09T20:48:08.779Z,95743.91
2024-05-09T20:50:39.824Z,95738.13
2024-05-09T20:53:11.722Z,95734.72
2024-05-09T20:55:39.184Z,95734.03
2024-05-09T20:58:08.624Z,95740.91
2024-05-09T21:00:40.133Z,95737.09
2024-05-09T21:03:17.309Z,95734.84
2024-05-09T21:05:44.902Z,95729.38
2024-05-09T21:08:14.269Z,95724.56
2024-05-09T21:10:41.400Z,95733.56
2024-05-09T21:13:10.679Z,95730.13
2024-05-09T21:15:37.334Z,95731.25
2024-05-09T21:18:06.781Z,95725.19
2024-05-09T21:20:37.419Z,95733.06
2024-05-09T21:23:06.874Z,95726.97
2024-05-09T21:25:33.475Z,95732.22
2024-05-09T21:28:02.673Z,95724.34
2024-05-09T21:30:38.556Z,95726.84
2024-05-09T21:33:13.642Z,95717.31
2024-05-09T21:35:44.702Z,95719.94
2024-05-09T21:38:15.042Z,95720.63
2024-05-09T21:40:41.987Z,95729.16
2024-05-09T21:43:11.707Z,95723.91
2024-05-09T21:45:38.876Z,95723.78
2024-05-09T21:48:09.016Z,95716.59
2024-05-09T21:50:40.239Z,95719.88
2024-05-09T21:53:14.050Z,95718.75
2024-05-09T21:55:41.056Z,95715.97
2024-05-09T21:58:10.548Z,95728.78
2024-05-09T22:00:39.385Z,95717.31
2024-05-09T22:03:09.939Z,95715.38
2024-05-09T22:05:37.863Z,95718.53
2024-05-09T22:08:07.781Z,95720.97
2024-05-09T22:10:37.453Z,95716.25
2024-05-09T22:13:07.318Z,95717.75
2024-05-09T22:15:35.465Z,95714.16
2024-05-09T22:18:05.627Z,95719.25
2024-05-09T22:20:37.295Z,95712.03
2024-05-09T22:23:09.031Z,95713.72
2024-05-09T22:25:39.142Z,95703.56
2024-05-09T22:28:08.801Z,95710.19
2024-05-09T22:30:38.906Z,95701.34
2024-05-09T22:33:11.046Z,95706.44
2024-05-09T22:35:38.759Z,95704.88
2024-05-09T22:38:08.250Z,95713.53
2024-05-09T22:40:45.448Z,95712.28
2024-05-09T22:43:24.513Z,95707.13
2024-05-09T22:45:52.033Z,95702.25
2024-05-09T22:48:21.509Z,95709.53
2024-05-09T22:50:48.587Z,95709.59
2024-05-09T22:53:18.061Z,95709.34
2024-05-09T22:55:44.655Z,95703.22
2024-05-09T22:58:13.922Z,95704.38
2024-05-09T23:00:43.299Z,95692.53
2024-05-09T23:03:14.118Z,95703.03
2024-05-09T23:05:40.807Z,95705.81
2024-05-09T23:08:11.256Z,95700.75
2024-05-09T23:10:38.460Z,95697.28
2024-05-09T23:13:08.654Z,95694.66
2024-05-09T23:15:35.785Z,95694.81
2024-05-09T23:18:08.596Z,95690.72
2024-05-09T23:20:38.799Z,95682.97
2024-05-09T23:23:10.635Z,95687.91
2024-05-09T23:25:38.347Z,95683.63
2024-05-09T23:28:07.927Z,95681.84
2024-05-09T23:30:38.703Z,95674.78
2024-05-09T23:33:13.936Z,95663.47
2024-05-09T23:35:41.675Z,95668.06
2024-05-09T23:38:10.893Z,95670.69
2024-05-09T23:40:40.301Z,95661.31
2024-05-09T23:43:11.871Z,95670.19
2024-05-09T23:45:39.407Z,95668.38
2024-05-09T23:48:09.259Z,95672.81
2024-05-09T23:50:40.124Z,95674.59
2024-05-09T23:53:10.891Z,95659.97
2024-05-09T23:55:38.400Z,95655.41
2024-05-09T23:58:08.195Z,95657.34
